Terminal Aerodrome Forecast
Issued by NWS Wilmington, OH

Current Version | Previous Version | Graphics & Text | Print | Product List | Glossary On
Versions: 1 2 3 4 5 6 7 8 9 10 11 12 13 14 15 16 17 18 19 20 21
003
FTUS41 KILN 240545
TAFCMH
TAF
KCMH 240545Z 2406/2506 00000KT 4SM BR SCT003
     FM240700 00000KT 1SM BR SCT003
     FM241200 32006KT P6SM FEW060
     FM241800 32010KT P6SM BKN035
     FM250200 35005KT P6SM SCT025=

USA.gov is the U.S. government's official web portal to all federal, state and local government web resources and services.